sensor_id;sensor_type;location;lat;lon;timestamp;P1;durP1;ratioP1;P2;durP2;ratioP2
5117;SDS011;2578;51.622;7.046;2022-09-09T00:01:07;12.47;;;10.67;;
5117;SDS011;2578;51.622;7.046;2022-09-09T00:06:50;12.40;;;10.30;;
5117;SDS011;2578;51.622;7.046;2022-09-09T00:09:25;12.60;;;9.97;;
5117;SDS011;2578;51.622;7.046;2022-09-09T00:15:05;12.47;;;11.10;;
5117;SDS011;2578;51.622;7.046;2022-09-09T00:20:49;12.77;;;10.70;;
5117;SDS011;2578;51.622;7.046;2022-09-09T00:23:27;12.73;;;11.30;;
5117;SDS011;2578;51.622;7.046;2022-09-09T00:26:11;13.10;;;11.80;;
5117;SDS011;2578;51.622;7.046;2022-09-09T00:31:31;11.90;;;10.70;;
5117;SDS011;2578;51.622;7.046;2022-09-09T00:33:58;11.93;;;10.70;;
5117;SDS011;2578;51.622;7.046;2022-09-09T00:36:36;12.00;;;10.70;;
5117;SDS011;2578;51.622;7.046;2022-09-09T00:39:03;12.20;;;10.90;;
5117;SDS011;2578;51.622;7.046;2022-09-09T00:41:42;12.20;;;10.90;;
5117;SDS011;2578;51.622;7.046;2022-09-09T00:44:34;11.90;;;10.43;;
5117;SDS011;2578;51.622;7.046;2022-09-09T00:47:12;12.30;;;11.00;;
5117;SDS011;2578;51.622;7.046;2022-09-09T00:52:48;11.77;;;10.43;;
5117;SDS011;2578;51.622;7.046;2022-09-09T00:58:07;12.17;;;10.80;;
5117;SDS011;2578;51.622;7.046;2022-09-09T01:00:44;12.40;;;11.10;;
5117;SDS011;2578;51.622;7.046;2022-09-09T01:03:34;11.90;;;10.30;;
5117;SDS011;2578;51.622;7.046;2022-09-09T01:11:42;11.57;;;9.47;;
5117;SDS011;2578;51.622;7.046;2022-09-09T01:16:56;12.40;;;11.03;;
5117;SDS011;2578;51.622;7.046;2022-09-09T01:19:27;12.20;;;10.90;;
5117;SDS011;2578;51.622;7.046;2022-09-09T01:25:12;11.77;;;10.10;;
5117;SDS011;2578;51.622;7.046;2022-09-09T01:28:00;12.13;;;10.40;;
5117;SDS011;2578;51.622;7.046;2022-09-09T01:30:30;11.93;;;9.97;;
5117;SDS011;2578;51.622;7.046;2022-09-09T01:32:58;11.93;;;9.90;;
5117;SDS011;2578;51.622;7.046;2022-09-09T01:35:32;11.73;;;9.70;;
5117;SDS011;2578;51.622;7.046;2022-09-09T01:38:21;11.77;;;9.50;;
5117;SDS011;2578;51.622;7.046;2022-09-09T01:40:47;11.90;;;9.90;;
5117;SDS011;2578;51.622;7.046;2022-09-09T01:43:14;11.93;;;9.80;;
5117;SDS011;2578;51.622;7.046;2022-09-09T01:45:39;11.67;;;9.50;;
5117;SDS011;2578;51.622;7.046;2022-09-09T01:48:08;11.53;;;9.30;;
5117;SDS011;2578;51.622;7.046;2022-09-09T01:50:34;11.57;;;9.40;;
5117;SDS011;2578;51.622;7.046;2022-09-09T01:52:59;11.57;;;9.40;;
5117;SDS011;2578;51.622;7.046;2022-09-09T01:55:32;11.57;;;9.43;;
5117;SDS011;2578;51.622;7.046;2022-09-09T02:01:02;11.83;;;9.90;;
5117;SDS011;2578;51.622;7.046;2022-09-09T02:03:51;11.57;;;9.50;;
5117;SDS011;2578;51.622;7.046;2022-09-09T02:06:23;11.63;;;9.37;;
5117;SDS011;2578;51.622;7.046;2022-09-09T02:08:52;11.67;;;9.30;;
5117;SDS011;2578;51.622;7.046;2022-09-09T02:11:21;11.43;;;9.20;;
5117;SDS011;2578;51.622;7.046;2022-09-09T02:13:51;11.70;;;9.77;;
5117;SDS011;2578;51.622;7.046;2022-09-09T02:16:23;11.47;;;9.13;;
5117;SDS011;2578;51.622;7.046;2022-09-09T02:18:51;11.37;;;8.90;;
5117;SDS011;2578;51.622;7.046;2022-09-09T02:21:21;11.37;;;8.90;;
5117;SDS011;2578;51.622;7.046;2022-09-09T02:23:48;11.47;;;9.10;;
5117;SDS011;2578;51.622;7.046;2022-09-09T02:26:17;11.57;;;9.33;;
5117;SDS011;2578;51.622;7.046;2022-09-09T02:28:47;11.47;;;9.40;;
5117;SDS011;2578;51.622;7.046;2022-09-09T02:31:15;11.53;;;9.40;;
5117;SDS011;2578;51.622;7.046;2022-09-09T02:33:45;11.87;;;10.07;;
5117;SDS011;2578;51.622;7.046;2022-09-09T02:36:14;11.37;;;9.10;;
5117;SDS011;2578;51.622;7.046;2022-09-09T02:38:50;11.23;;;8.63;;
5117;SDS011;2578;51.622;7.046;2022-09-09T02:41:35;10.83;;;8.10;;
5117;SDS011;2578;51.622;7.046;2022-09-09T02:44:09;10.67;;;7.90;;
5117;SDS011;2578;51.622;7.046;2022-09-09T02:49:15;10.70;;;6.90;;
5117;SDS011;2578;51.622;7.046;2022-09-09T02:51:54;10.63;;;6.77;;
5117;SDS011;2578;51.622;7.046;2022-09-09T02:54:29;10.57;;;6.80;;
5117;SDS011;2578;51.622;7.046;2022-09-09T02:57:00;10.67;;;6.80;;
5117;SDS011;2578;51.622;7.046;2022-09-09T02:59:26;10.33;;;6.30;;
5117;SDS011;2578;51.622;7.046;2022-09-09T03:01:52;10.57;;;6.73;;
5117;SDS011;2578;51.622;7.046;2022-09-09T03:04:18;11.40;;;7.30;;
5117;SDS011;2578;51.622;7.046;2022-09-09T03:06:44;10.67;;;7.10;;
5117;SDS011;2578;51.622;7.046;2022-09-09T03:09:09;10.77;;;7.23;;
5117;SDS011;2578;51.622;7.046;2022-09-09T03:11:35;10.80;;;7.23;;
5117;SDS011;2578;51.622;7.046;2022-09-09T03:14:03;10.70;;;7.40;;
5117;SDS011;2578;51.622;7.046;2022-09-09T03:16:29;10.73;;;7.30;;
5117;SDS011;2578;51.622;7.046;2022-09-09T03:18:55;14.90;;;10.50;;
5117;SDS011;2578;51.622;7.046;2022-09-09T03:21:21;10.77;;;7.50;;
5117;SDS011;2578;51.622;7.046;2022-09-09T03:23:46;10.77;;;7.60;;
5117;SDS011;2578;51.622;7.046;2022-09-09T03:26:12;10.77;;;7.80;;
5117;SDS011;2578;51.622;7.046;2022-09-09T03:28:40;10.77;;;7.60;;
5117;SDS011;2578;51.622;7.046;2022-09-09T03:31:06;10.83;;;7.90;;
5117;SDS011;2578;51.622;7.046;2022-09-09T03:33:35;12.83;;;9.90;;
5117;SDS011;2578;51.622;7.046;2022-09-09T03:36:02;10.97;;;8.57;;
5117;SDS011;2578;51.622;7.046;2022-09-09T03:38:28;11.03;;;8.50;;
5117;SDS011;2578;51.622;7.046;2022-09-09T03:40:54;11.07;;;8.50;;
5117;SDS011;2578;51.622;7.046;2022-09-09T03:43:22;11.03;;;8.60;;
5117;SDS011;2578;51.622;7.046;2022-09-09T03:45:48;11.10;;;8.53;;
5117;SDS011;2578;51.622;7.046;2022-09-09T03:48:15;10.67;;;7.97;;
5117;SDS011;2578;51.622;7.046;2022-09-09T03:50:45;10.70;;;7.50;;
5117;SDS011;2578;51.622;7.046;2022-09-09T03:53:12;10.80;;;7.53;;
5117;SDS011;2578;51.622;7.046;2022-09-09T03:55:38;10.63;;;7.50;;
5117;SDS011;2578;51.622;7.046;2022-09-09T03:58:04;10.47;;;7.67;;
5117;SDS011;2578;51.622;7.046;2022-09-09T04:00:29;11.30;;;8.37;;
5117;SDS011;2578;51.622;7.046;2022-09-09T04:02:55;10.73;;;7.47;;
5117;SDS011;2578;51.622;7.046;2022-09-09T04:05:21;11.50;;;8.17;;
5117;SDS011;2578;51.622;7.046;2022-09-09T04:07:47;10.80;;;7.53;;
5117;SDS011;2578;51.622;7.046;2022-09-09T04:10:12;11.07;;;8.20;;
5117;SDS011;2578;51.622;7.046;2022-09-09T04:12:38;10.70;;;7.50;;
5117;SDS011;2578;51.622;7.046;2022-09-09T04:15:04;10.73;;;8.00;;
5117;SDS011;2578;51.622;7.046;2022-09-09T04:17:30;10.70;;;7.87;;
5117;SDS011;2578;51.622;7.046;2022-09-09T04:19:56;10.77;;;7.83;;
5117;SDS011;2578;51.622;7.046;2022-09-09T04:22:22;10.80;;;7.80;;
5117;SDS011;2578;51.622;7.046;2022-09-09T04:24:48;11.40;;;8.73;;
5117;SDS011;2578;51.622;7.046;2022-09-09T04:27:13;10.93;;;8.17;;
5117;SDS011;2578;51.622;7.046;2022-09-09T04:29:39;11.07;;;8.30;;
5117;SDS011;2578;51.622;7.046;2022-09-09T04:32:04;11.30;;;8.70;;
5117;SDS011;2578;51.622;7.046;2022-09-09T04:34:30;11.00;;;8.70;;
5117;SDS011;2578;51.622;7.046;2022-09-09T04:36:56;11.50;;;8.90;;
5117;SDS011;2578;51.622;7.046;2022-09-09T04:39:22;11.80;;;9.30;;
5117;SDS011;2578;51.622;7.046;2022-09-09T04:41:47;11.07;;;8.70;;
5117;SDS011;2578;51.622;7.046;2022-09-09T04:44:13;11.27;;;8.80;;
5117;SDS011;2578;51.622;7.046;2022-09-09T04:46:39;11.27;;;8.67;;
5117;SDS011;2578;51.622;7.046;2022-09-09T04:49:06;11.17;;;8.90;;
5117;SDS011;2578;51.622;7.046;2022-09-09T04:51:32;11.07;;;8.87;;
5117;SDS011;2578;51.622;7.046;2022-09-09T04:53:57;11.13;;;8.70;;
5117;SDS011;2578;51.622;7.046;2022-09-09T04:56:23;11.43;;;9.00;;
5117;SDS011;2578;51.622;7.046;2022-09-09T04:58:51;11.50;;;9.30;;
5117;SDS011;2578;51.622;7.046;2022-09-09T05:01:18;11.50;;;9.07;;
5117;SDS011;2578;51.622;7.046;2022-09-09T05:03:46;11.27;;;8.93;;
5117;SDS011;2578;51.622;7.046;2022-09-09T05:06:16;11.17;;;8.70;;
5117;SDS011;2578;51.622;7.046;2022-09-09T05:08:43;11.10;;;8.50;;
5117;SDS011;2578;51.622;7.046;2022-09-09T05:11:29;13.60;;;8.50;;
5117;SDS011;2578;51.622;7.046;2022-09-09T05:13:57;11.07;;;7.80;;
5117;SDS011;2578;51.622;7.046;2022-09-09T05:16:22;11.60;;;8.27;;
5117;SDS011;2578;51.622;7.046;2022-09-09T05:18:48;11.53;;;8.50;;
5117;SDS011;2578;51.622;7.046;2022-09-09T05:21:15;11.43;;;8.30;;
5117;SDS011;2578;51.622;7.046;2022-09-09T05:23:42;11.83;;;9.00;;
5117;SDS011;2578;51.622;7.046;2022-09-09T05:26:11;12.20;;;9.50;;
5117;SDS011;2578;51.622;7.046;2022-09-09T05:28:38;12.70;;;9.67;;
5117;SDS011;2578;51.622;7.046;2022-09-09T05:31:05;11.57;;;8.33;;
5117;SDS011;2578;51.622;7.046;2022-09-09T05:33:39;11.73;;;8.53;;
5117;SDS011;2578;51.622;7.046;2022-09-09T05:36:07;11.50;;;8.20;;
5117;SDS011;2578;51.622;7.046;2022-09-09T05:38:33;11.60;;;8.50;;
5117;SDS011;2578;51.622;7.046;2022-09-09T05:41:00;11.40;;;7.90;;
5117;SDS011;2578;51.622;7.046;2022-09-09T05:43:27;12.10;;;8.23;;
5117;SDS011;2578;51.622;7.046;2022-09-09T05:48:30;11.27;;;7.60;;
5117;SDS011;2578;51.622;7.046;2022-09-09T05:50:57;11.63;;;8.00;;
5117;SDS011;2578;51.622;7.046;2022-09-09T05:53:23;11.70;;;8.10;;
5117;SDS011;2578;51.622;7.046;2022-09-09T05:55:49;11.43;;;7.73;;
5117;SDS011;2578;51.622;7.046;2022-09-09T05:58:15;16.20;;;8.80;;
5117;SDS011;2578;51.622;7.046;2022-09-09T06:00:41;11.20;;;7.93;;
5117;SDS011;2578;51.622;7.046;2022-09-09T06:03:09;11.07;;;7.70;;
5117;SDS011;2578;51.622;7.046;2022-09-09T06:05:36;10.77;;;7.20;;
5117;SDS011;2578;51.622;7.046;2022-09-09T06:08:02;10.63;;;7.00;;
5117;SDS011;2578;51.622;7.046;2022-09-09T06:10:28;10.83;;;7.40;;
5117;SDS011;2578;51.622;7.046;2022-09-09T06:12:54;10.90;;;7.60;;
5117;SDS011;2578;51.622;7.046;2022-09-09T06:15:19;11.00;;;7.50;;
5117;SDS011;2578;51.622;7.046;2022-09-09T06:17:45;10.97;;;7.20;;
5117;SDS011;2578;51.622;7.046;2022-09-09T06:20:11;10.93;;;6.87;;
5117;SDS011;2578;51.622;7.046;2022-09-09T06:22:39;10.93;;;7.00;;
5117;SDS011;2578;51.622;7.046;2022-09-09T06:25:05;13.10;;;7.40;;
5117;SDS011;2578;51.622;7.046;2022-09-09T06:27:32;12.00;;;7.17;;
5117;SDS011;2578;51.622;7.046;2022-09-09T06:29:58;11.00;;;6.90;;
5117;SDS011;2578;51.622;7.046;2022-09-09T06:32:23;10.93;;;6.50;;
5117;SDS011;2578;51.622;7.046;2022-09-09T06:34:50;10.90;;;6.40;;
5117;SDS011;2578;51.622;7.046;2022-09-09T06:37:15;10.87;;;6.50;;
5117;SDS011;2578;51.622;7.046;2022-09-09T06:39:41;11.27;;;7.20;;
5117;SDS011;2578;51.622;7.046;2022-09-09T06:42:06;10.77;;;6.10;;
5117;SDS011;2578;51.622;7.046;2022-09-09T06:44:33;10.97;;;6.87;;
5117;SDS011;2578;51.622;7.046;2022-09-09T06:46:59;10.97;;;7.00;;
5117;SDS011;2578;51.622;7.046;2022-09-09T06:49:24;10.87;;;6.90;;
5117;SDS011;2578;51.622;7.046;2022-09-09T06:51:50;11.00;;;7.13;;
5117;SDS011;2578;51.622;7.046;2022-09-09T06:54:17;10.43;;;6.90;;
5117;SDS011;2578;51.622;7.046;2022-09-09T06:56:43;10.13;;;6.60;;
5117;SDS011;2578;51.622;7.046;2022-09-09T06:59:10;9.90;;;6.50;;
5117;SDS011;2578;51.622;7.046;2022-09-09T07:01:40;9.97;;;6.50;;
5117;SDS011;2578;51.622;7.046;2022-09-09T07:04:08;12.30;;;7.30;;
5117;SDS011;2578;51.622;7.046;2022-09-09T07:06:37;9.90;;;6.60;;
5117;SDS011;2578;51.622;7.046;2022-09-09T07:09:05;9.80;;;6.30;;
5117;SDS011;2578;51.622;7.046;2022-09-09T07:11:34;10.13;;;6.50;;
5117;SDS011;2578;51.622;7.046;2022-09-09T07:14:03;10.10;;;6.90;;
5117;SDS011;2578;51.622;7.046;2022-09-09T07:16:29;10.07;;;7.20;;
5117;SDS011;2578;51.622;7.046;2022-09-09T07:18:56;10.40;;;6.90;;
5117;SDS011;2578;51.622;7.046;2022-09-09T07:21:25;9.80;;;7.27;;
5117;SDS011;2578;51.622;7.046;2022-09-09T07:23:52;9.93;;;7.33;;
5117;SDS011;2578;51.622;7.046;2022-09-09T07:26:20;9.60;;;6.83;;
5117;SDS011;2578;51.622;7.046;2022-09-09T07:28:47;10.10;;;7.03;;
5117;SDS011;2578;51.622;7.046;2022-09-09T07:31:14;9.90;;;7.30;;
5117;SDS011;2578;51.622;7.046;2022-09-09T07:33:42;9.93;;;7.10;;
5117;SDS011;2578;51.622;7.046;2022-09-09T07:36:12;10.00;;;7.47;;
5117;SDS011;2578;51.622;7.046;2022-09-09T07:38:42;10.07;;;7.80;;
5117;SDS011;2578;51.622;7.046;2022-09-09T07:41:17;10.20;;;7.80;;
5117;SDS011;2578;51.622;7.046;2022-09-09T07:43:45;10.17;;;7.87;;
5117;SDS011;2578;51.622;7.046;2022-09-09T07:46:13;10.40;;;7.90;;
5117;SDS011;2578;51.622;7.046;2022-09-09T07:48:44;10.63;;;8.63;;
5117;SDS011;2578;51.622;7.046;2022-09-09T07:51:11;11.03;;;9.10;;
5117;SDS011;2578;51.622;7.046;2022-09-09T07:53:43;11.03;;;9.17;;
5117;SDS011;2578;51.622;7.046;2022-09-09T07:56:10;10.93;;;9.13;;
5117;SDS011;2578;51.622;7.046;2022-09-09T07:58:37;11.37;;;9.97;;
5117;SDS011;2578;51.622;7.046;2022-09-09T08:01:14;11.97;;;10.67;;
5117;SDS011;2578;51.622;7.046;2022-09-09T08:03:43;12.00;;;10.70;;
5117;SDS011;2578;51.622;7.046;2022-09-09T08:06:10;12.00;;;10.70;;
5117;SDS011;2578;51.622;7.046;2022-09-09T08:08:37;12.90;;;11.50;;
5117;SDS011;2578;51.622;7.046;2022-09-09T08:11:07;12.20;;;10.90;;
5117;SDS011;2578;51.622;7.046;2022-09-09T08:13:37;11.43;;;10.10;;
5117;SDS011;2578;51.622;7.046;2022-09-09T08:16:05;11.53;;;10.20;;
5117;SDS011;2578;51.622;7.046;2022-09-09T08:18:30;12.30;;;11.00;;
5117;SDS011;2578;51.622;7.046;2022-09-09T08:20:56;12.70;;;11.40;;
5117;SDS011;2578;51.622;7.046;2022-09-09T08:23:22;12.30;;;11.00;;
5117;SDS011;2578;51.622;7.046;2022-09-09T08:25:47;12.80;;;11.50;;
5117;SDS011;2578;51.622;7.046;2022-09-09T08:28:13;12.97;;;11.57;;
5117;SDS011;2578;51.622;7.046;2022-09-09T08:30:39;12.00;;;10.70;;
5117;SDS011;2578;51.622;7.046;2022-09-09T08:33:05;12.37;;;11.07;;
5117;SDS011;2578;51.622;7.046;2022-09-09T08:35:30;12.10;;;10.80;;
5117;SDS011;2578;51.622;7.046;2022-09-09T08:37:57;12.50;;;11.20;;
5117;SDS011;2578;51.622;7.046;2022-09-09T08:40:25;13.30;;;11.87;;
5117;SDS011;2578;51.622;7.046;2022-09-09T08:42:57;12.50;;;11.20;;
5117;SDS011;2578;51.622;7.046;2022-09-09T08:50:34;14.40;;;13.00;;
5117;SDS011;2578;51.622;7.046;2022-09-09T08:55:45;14.20;;;12.80;;
5117;SDS011;2578;51.622;7.046;2022-09-09T08:58:18;14.60;;;13.20;;
5117;SDS011;2578;51.622;7.046;2022-09-09T09:00:54;16.20;;;14.60;;
5117;SDS011;2578;51.622;7.046;2022-09-09T09:11:25;17.30;;;15.70;;
5117;SDS011;2578;51.622;7.046;2022-09-09T09:13:53;20.80;;;18.90;;
5117;SDS011;2578;51.622;7.046;2022-09-09T09:16:26;21.43;;;19.43;;
5117;SDS011;2578;51.622;7.046;2022-09-09T09:18:53;23.00;;;20.80;;
5117;SDS011;2578;51.622;7.046;2022-09-09T09:21:21;24.70;;;22.40;;
5117;SDS011;2578;51.622;7.046;2022-09-09T09:23:59;26.60;;;24.10;;
5117;SDS011;2578;51.622;7.046;2022-09-09T09:26:30;24.43;;;22.13;;
5117;SDS011;2578;51.622;7.046;2022-09-09T09:28:59;27.13;;;24.73;;
5117;SDS011;2578;51.622;7.046;2022-09-09T09:31:34;26.53;;;24.17;;
5117;SDS011;2578;51.622;7.046;2022-09-09T09:34:00;25.97;;;23.57;;
5117;SDS011;2578;51.622;7.046;2022-09-09T09:36:43;27.73;;;25.23;;
5117;SDS011;2578;51.622;7.046;2022-09-09T09:39:22;26.90;;;24.50;;
5117;SDS011;2578;51.622;7.046;2022-09-09T09:41:48;27.50;;;25.10;;
5117;SDS011;2578;51.622;7.046;2022-09-09T09:46:51;21.63;;;19.63;;
5117;SDS011;2578;51.622;7.046;2022-09-09T09:49:17;20.67;;;18.77;;
5117;SDS011;2578;51.622;7.046;2022-09-09T09:51:43;21.10;;;19.10;;
5117;SDS011;2578;51.622;7.046;2022-09-09T09:56:38;21.60;;;19.60;;
5117;SDS011;2578;51.622;7.046;2022-09-09T09:59:05;21.47;;;19.30;;
5117;SDS011;2578;51.622;7.046;2022-09-09T10:01:44;22.47;;;20.43;;
5117;SDS011;2578;51.622;7.046;2022-09-09T10:06:38;22.60;;;20.40;;
5117;SDS011;2578;51.622;7.046;2022-09-09T10:09:19;21.80;;;19.80;;
5117;SDS011;2578;51.622;7.046;2022-09-09T10:14:44;20.70;;;18.80;;
5117;SDS011;2578;51.622;7.046;2022-09-09T10:17:25;20.20;;;18.30;;
5117;SDS011;2578;51.622;7.046;2022-09-09T10:22:39;19.70;;;17.90;;
5117;SDS011;2578;51.622;7.046;2022-09-09T10:31:12;19.73;;;17.93;;
5117;SDS011;2578;51.622;7.046;2022-09-09T10:33:32;19.30;;;17.60;;
5117;SDS011;2578;51.622;7.046;2022-09-09T10:38:52;20.10;;;18.30;;
5117;SDS011;2578;51.622;7.046;2022-09-09T10:50:35;27.20;;;24.80;;
5117;SDS011;2578;51.622;7.046;2022-09-09T10:56:10;26.20;;;23.80;;
5117;SDS011;2578;51.622;7.046;2022-09-09T11:01:21;24.30;;;22.00;;
5117;SDS011;2578;51.622;7.046;2022-09-09T11:03:55;24.00;;;21.70;;
5117;SDS011;2578;51.622;7.046;2022-09-09T11:06:29;22.87;;;20.67;;
5117;SDS011;2578;51.622;7.046;2022-09-09T11:09:01;22.10;;;20.00;;
5117;SDS011;2578;51.622;7.046;2022-09-09T11:16:41;22.40;;;20.37;;
5117;SDS011;2578;51.622;7.046;2022-09-09T11:21:50;21.83;;;19.83;;
5117;SDS011;2578;51.622;7.046;2022-09-09T11:38:48;24.50;;;22.20;;
5117;SDS011;2578;51.622;7.046;2022-09-09T11:41:35;20.83;;;18.93;;
5117;SDS011;2578;51.622;7.046;2022-09-09T11:44:09;21.80;;;19.80;;
5117;SDS011;2578;51.622;7.046;2022-09-09T11:46:42;21.40;;;19.40;;
5117;SDS011;2578;51.622;7.046;2022-09-09T11:49:27;21.50;;;19.50;;
5117;SDS011;2578;51.622;7.046;2022-09-09T11:51:56;21.67;;;19.67;;
5117;SDS011;2578;51.622;7.046;2022-09-09T11:56:57;22.00;;;20.00;;
5117;SDS011;2578;51.622;7.046;2022-09-09T11:59:24;23.40;;;21.30;;
5117;SDS011;2578;51.622;7.046;2022-09-09T12:06:53;22.00;;;19.97;;
5117;SDS011;2578;51.622;7.046;2022-09-09T12:09:25;21.30;;;19.30;;
5117;SDS011;2578;51.622;7.046;2022-09-09T12:14:56;22.60;;;20.50;;
5117;SDS011;2578;51.622;7.046;2022-09-09T12:17:27;22.70;;;20.60;;
5117;SDS011;2578;51.622;7.046;2022-09-09T12:28:18;21.60;;;19.60;;
5117;SDS011;2578;51.622;7.046;2022-09-09T12:30:59;20.50;;;18.60;;
5117;SDS011;2578;51.622;7.046;2022-09-09T12:33:36;21.90;;;19.90;;
5117;SDS011;2578;51.622;7.046;2022-09-09T12:36:08;21.40;;;19.40;;
5117;SDS011;2578;51.622;7.046;2022-09-09T12:38:40;23.23;;;21.23;;
5117;SDS011;2578;51.622;7.046;2022-09-09T12:41:15;24.00;;;22.00;;
5117;SDS011;2578;51.622;7.046;2022-09-09T12:43:47;21.70;;;19.73;;
5117;SDS011;2578;51.622;7.046;2022-09-09T12:46:18;20.47;;;18.70;;
5117;SDS011;2578;51.622;7.046;2022-09-09T12:48:52;17.77;;;16.10;;
5117;SDS011;2578;51.622;7.046;2022-09-09T12:51:21;20.73;;;18.77;;
5117;SDS011;2578;51.622;7.046;2022-09-09T12:53:52;18.00;;;16.30;;
5117;SDS011;2578;51.622;7.046;2022-09-09T12:56:18;17.80;;;16.10;;
5117;SDS011;2578;51.622;7.046;2022-09-09T12:58:47;19.10;;;17.20;;
5117;SDS011;2578;51.622;7.046;2022-09-09T13:01:23;19.90;;;18.10;;
5117;SDS011;2578;51.622;7.046;2022-09-09T13:03:50;17.60;;;15.90;;
5117;SDS011;2578;51.622;7.046;2022-09-09T13:06:27;19.50;;;17.80;;
5117;SDS011;2578;51.622;7.046;2022-09-09T13:08:55;18.70;;;17.10;;
5117;SDS011;2578;51.622;7.046;2022-09-09T13:11:23;22.80;;;20.60;;
5117;SDS011;2578;51.622;7.046;2022-09-09T13:13:55;20.60;;;17.10;;
5117;SDS011;2578;51.622;7.046;2022-09-09T13:19:01;14.30;;;12.80;;
5117;SDS011;2578;51.622;7.046;2022-09-09T13:21:38;13.20;;;11.80;;
5117;SDS011;2578;51.622;7.046;2022-09-09T13:24:05;11.90;;;10.60;;
5117;SDS011;2578;51.622;7.046;2022-09-09T13:26:54;11.37;;;9.70;;
5117;SDS011;2578;51.622;7.046;2022-09-09T13:29:21;10.77;;;8.87;;
5117;SDS011;2578;51.622;7.046;2022-09-09T13:31:47;10.50;;;8.30;;
5117;SDS011;2578;51.622;7.046;2022-09-09T13:34:30;15.73;;;8.80;;
5117;SDS011;2578;51.622;7.046;2022-09-09T13:37:03;9.87;;;8.10;;
5117;SDS011;2578;51.622;7.046;2022-09-09T13:39:32;9.43;;;7.00;;
5117;SDS011;2578;51.622;7.046;2022-09-09T13:42:00;9.70;;;7.40;;
5117;SDS011;2578;51.622;7.046;2022-09-09T13:44:31;9.67;;;7.40;;
5117;SDS011;2578;51.622;7.046;2022-09-09T13:47:02;9.77;;;7.83;;
5117;SDS011;2578;51.622;7.046;2022-09-09T13:49:30;9.87;;;8.00;;
5117;SDS011;2578;51.622;7.046;2022-09-09T13:52:11;10.40;;;8.47;;
5117;SDS011;2578;51.622;7.046;2022-09-09T13:54:38;10.23;;;8.33;;
5117;SDS011;2578;51.622;7.046;2022-09-09T13:57:05;10.00;;;7.87;;
5117;SDS011;2578;51.622;7.046;2022-09-09T13:59:45;9.83;;;7.50;;
5117;SDS011;2578;51.622;7.046;2022-09-09T14:02:11;10.70;;;8.43;;
5117;SDS011;2578;51.622;7.046;2022-09-09T14:04:38;10.40;;;8.90;;
5117;SDS011;2578;51.622;7.046;2022-09-09T14:07:07;10.73;;;9.50;;
5117;SDS011;2578;51.622;7.046;2022-09-09T14:09:37;11.50;;;10.30;;
5117;SDS011;2578;51.622;7.046;2022-09-09T14:12:02;12.10;;;10.90;;
5117;SDS011;2578;51.622;7.046;2022-09-09T14:14:29;12.70;;;11.40;;
5117;SDS011;2578;51.622;7.046;2022-09-09T14:16:55;13.20;;;11.90;;
5117;SDS011;2578;51.622;7.046;2022-09-09T14:19:20;12.60;;;11.30;;
5117;SDS011;2578;51.622;7.046;2022-09-09T14:21:46;24.77;;;12.60;;
5117;SDS011;2578;51.622;7.046;2022-09-09T14:24:12;13.93;;;12.53;;
5117;SDS011;2578;51.622;7.046;2022-09-09T14:26:37;14.97;;;13.47;;
5117;SDS011;2578;51.622;7.046;2022-09-09T14:29:03;14.90;;;13.40;;
5117;SDS011;2578;51.622;7.046;2022-09-09T14:31:29;16.37;;;14.70;;
5117;SDS011;2578;51.622;7.046;2022-09-09T14:33:54;15.40;;;13.90;;
5117;SDS011;2578;51.622;7.046;2022-09-09T14:36:20;16.00;;;14.40;;
5117;SDS011;2578;51.622;7.046;2022-09-09T14:38:46;17.03;;;15.33;;
5117;SDS011;2578;51.622;7.046;2022-09-09T14:41:13;17.50;;;15.70;;
5117;SDS011;2578;51.622;7.046;2022-09-09T14:43:41;17.07;;;15.27;;
5117;SDS011;2578;51.622;7.046;2022-09-09T14:46:09;16.50;;;14.80;;
5117;SDS011;2578;51.622;7.046;2022-09-09T14:48:36;15.53;;;13.93;;
5117;SDS011;2578;51.622;7.046;2022-09-09T14:53:31;15.30;;;13.70;;
5117;SDS011;2578;51.622;7.046;2022-09-09T14:56:07;14.40;;;12.90;;
5117;SDS011;2578;51.622;7.046;2022-09-09T14:58:35;14.17;;;12.77;;
5117;SDS011;2578;51.622;7.046;2022-09-09T15:01:06;14.90;;;13.40;;
5117;SDS011;2578;51.622;7.046;2022-09-09T15:03:44;14.17;;;12.70;;
5117;SDS011;2578;51.622;7.046;2022-09-09T15:06:15;16.93;;;13.03;;
5117;SDS011;2578;51.622;7.046;2022-09-09T15:08:41;12.87;;;11.57;;
5117;SDS011;2578;51.622;7.046;2022-09-09T15:11:08;11.40;;;10.10;;
5117;SDS011;2578;51.622;7.046;2022-09-09T15:13:35;10.93;;;9.33;;
5117;SDS011;2578;51.622;7.046;2022-09-09T15:16:05;10.70;;;9.60;;
5117;SDS011;2578;51.622;7.046;2022-09-09T15:18:32;11.90;;;10.70;;
5117;SDS011;2578;51.622;7.046;2022-09-09T15:21:07;12.10;;;10.90;;
5117;SDS011;2578;51.622;7.046;2022-09-09T15:23:34;11.23;;;10.03;;
5117;SDS011;2578;51.622;7.046;2022-09-09T15:26:01;10.93;;;9.73;;
5117;SDS011;2578;51.622;7.046;2022-09-09T15:28:27;10.83;;;9.50;;
5117;SDS011;2578;51.622;7.046;2022-09-09T15:30:53;10.70;;;9.60;;
5117;SDS011;2578;51.622;7.046;2022-09-09T15:33:20;10.77;;;9.37;;
5117;SDS011;2578;51.622;7.046;2022-09-09T15:35:47;11.67;;;10.47;;
5117;SDS011;2578;51.622;7.046;2022-09-09T15:38:14;11.43;;;10.23;;
5117;SDS011;2578;51.622;7.046;2022-09-09T15:40:40;11.40;;;10.20;;
5117;SDS011;2578;51.622;7.046;2022-09-09T15:43:06;11.07;;;9.40;;
5117;SDS011;2578;51.622;7.046;2022-09-09T15:45:32;11.70;;;10.00;;
5117;SDS011;2578;51.622;7.046;2022-09-09T15:48:01;12.03;;;10.10;;
5117;SDS011;2578;51.622;7.046;2022-09-09T15:50:28;12.43;;;10.70;;
5117;SDS011;2578;51.622;7.046;2022-09-09T15:52:57;12.17;;;10.50;;
5117;SDS011;2578;51.622;7.046;2022-09-09T15:55:26;12.27;;;10.80;;
5117;SDS011;2578;51.622;7.046;2022-09-09T15:57:52;12.10;;;10.80;;
5117;SDS011;2578;51.622;7.046;2022-09-09T16:00:18;12.70;;;11.10;;
5117;SDS011;2578;51.622;7.046;2022-09-09T16:02:46;12.23;;;10.47;;
5117;SDS011;2578;51.622;7.046;2022-09-09T16:05:12;12.77;;;11.00;;
5117;SDS011;2578;51.622;7.046;2022-09-09T16:07:38;12.73;;;11.13;;
5117;SDS011;2578;51.622;7.046;2022-09-09T16:10:04;13.00;;;11.60;;
5117;SDS011;2578;51.622;7.046;2022-09-09T16:12:30;12.53;;;11.20;;
5117;SDS011;2578;51.622;7.046;2022-09-09T16:14:56;13.20;;;11.80;;
5117;SDS011;2578;51.622;7.046;2022-09-09T16:17:21;13.30;;;11.90;;
5117;SDS011;2578;51.622;7.046;2022-09-09T16:19:47;13.40;;;12.00;;
5117;SDS011;2578;51.622;7.046;2022-09-09T16:22:12;13.70;;;12.30;;
5117;SDS011;2578;51.622;7.046;2022-09-09T16:24:40;12.90;;;11.60;;
5117;SDS011;2578;51.622;7.046;2022-09-09T16:27:06;13.10;;;11.80;;
5117;SDS011;2578;51.622;7.046;2022-09-09T16:29:32;12.10;;;10.80;;
5117;SDS011;2578;51.622;7.046;2022-09-09T16:31:57;12.33;;;10.70;;
5117;SDS011;2578;51.622;7.046;2022-09-09T16:34:30;12.37;;;10.80;;
5117;SDS011;2578;51.622;7.046;2022-09-09T16:37:02;12.87;;;11.40;;
5117;SDS011;2578;51.622;7.046;2022-09-09T16:39:28;12.73;;;11.00;;
5117;SDS011;2578;51.622;7.046;2022-09-09T16:41:54;13.30;;;11.30;;
5117;SDS011;2578;51.622;7.046;2022-09-09T16:44:20;13.93;;;11.60;;
5117;SDS011;2578;51.622;7.046;2022-09-09T16:46:46;12.60;;;11.10;;
5117;SDS011;2578;51.622;7.046;2022-09-09T16:49:13;12.77;;;11.20;;
5117;SDS011;2578;51.622;7.046;2022-09-09T16:51:47;12.67;;;11.03;;
5117;SDS011;2578;51.622;7.046;2022-09-09T16:54:15;12.63;;;10.90;;
5117;SDS011;2578;51.622;7.046;2022-09-09T16:56:42;12.80;;;10.90;;
5117;SDS011;2578;51.622;7.046;2022-09-09T16:59:13;14.53;;;11.93;;
5117;SDS011;2578;51.622;7.046;2022-09-09T17:01:41;12.57;;;10.57;;
5117;SDS011;2578;51.622;7.046;2022-09-09T17:04:13;12.87;;;10.70;;
5117;SDS011;2578;51.622;7.046;2022-09-09T17:06:41;12.67;;;10.50;;
5117;SDS011;2578;51.622;7.046;2022-09-09T17:09:10;12.47;;;9.97;;
5117;SDS011;2578;51.622;7.046;2022-09-09T17:11:39;12.60;;;10.90;;
5117;SDS011;2578;51.622;7.046;2022-09-09T17:14:06;12.57;;;10.20;;
5117;SDS011;2578;51.622;7.046;2022-09-09T17:16:35;12.63;;;10.20;;
5117;SDS011;2578;51.622;7.046;2022-09-09T17:19:01;12.13;;;10.00;;
5117;SDS011;2578;51.622;7.046;2022-09-09T17:21:29;13.00;;;11.33;;
5117;SDS011;2578;51.622;7.046;2022-09-09T17:23:56;16.03;;;11.07;;